sensor_id;sensor_type;location;lat;lon;timestamp;P1;durP1;ratioP1;P2;durP2;ratioP2
22837;SDS011;11585;51.450;-0.240;2022-11-20T00:00:55;24.70;;;9.18;;
22837;SDS011;11585;51.450;-0.240;2022-11-20T00:07:26;24.05;;;10.02;;
22837;SDS011;11585;51.450;-0.240;2022-11-20T00:10:03;23.02;;;9.57;;
22837;SDS011;11585;51.450;-0.240;2022-11-20T00:16:43;31.75;;;10.73;;
22837;SDS011;11585;51.450;-0.240;2022-11-20T02:03:34;14.20;;;5.30;;
22837;SDS011;11585;51.450;-0.240;2022-11-20T03:03:50;25.02;;;8.00;;
22837;SDS011;11585;51.450;-0.240;2022-11-20T03:06:17;16.58;;;4.45;;
22837;SDS011;11585;51.450;-0.240;2022-11-20T03:09:05;10.05;;;3.97;;
22837;SDS011;11585;51.450;-0.240;2022-11-20T03:19:09;10.32;;;3.50;;
22837;SDS011;11585;51.450;-0.240;2022-11-20T03:35:11;6.43;;;2.30;;
22837;SDS011;11585;51.450;-0.240;2022-11-20T03:37:51;10.68;;;2.30;;
22837;SDS011;11585;51.450;-0.240;2022-11-20T03:40:27;13.50;;;2.80;;
22837;SDS011;11585;51.450;-0.240;2022-11-20T03:45:54;11.10;;;2.95;;
22837;SDS011;11585;51.450;-0.240;2022-11-20T03:48:23;7.38;;;2.45;;
22837;SDS011;11585;51.450;-0.240;2022-11-20T03:51:11;11.65;;;2.10;;
22837;SDS011;11585;51.450;-0.240;2022-11-20T03:54:00;5.78;;;2.05;;
22837;SDS011;11585;51.450;-0.240;2022-11-20T03:56:34;12.40;;;2.65;;
22837;SDS011;11585;51.450;-0.240;2022-11-20T03:59:09;10.32;;;2.72;;
22837;SDS011;11585;51.450;-0.240;2022-11-20T04:01:38;9.68;;;2.75;;
22837;SDS011;11585;51.450;-0.240;2022-11-20T04:07:12;12.18;;;2.70;;
22837;SDS011;11585;51.450;-0.240;2022-11-20T04:09:37;10.45;;;3.08;;
22837;SDS011;11585;51.450;-0.240;2022-11-20T04:12:03;7.68;;;2.90;;
22837;SDS011;11585;51.450;-0.240;2022-11-20T04:17:33;7.05;;;2.72;;
22837;SDS011;11585;51.450;-0.240;2022-11-20T04:19:59;12.05;;;3.08;;
22837;SDS011;11585;51.450;-0.240;2022-11-20T04:22:24;9.02;;;3.45;;
22837;SDS011;11585;51.450;-0.240;2022-11-20T04:28:12;7.93;;;2.97;;
22837;SDS011;11585;51.450;-0.240;2022-11-20T04:30:38;12.55;;;3.22;;
22837;SDS011;11585;51.450;-0.240;2022-11-20T04:33:04;9.85;;;3.38;;
22837;SDS011;11585;51.450;-0.240;2022-11-20T04:35:29;9.88;;;3.20;;
22837;SDS011;11585;51.450;-0.240;2022-11-20T04:37:55;11.55;;;3.58;;
22837;SDS011;11585;51.450;-0.240;2022-11-20T04:40:20;8.93;;;2.80;;
22837;SDS011;11585;51.450;-0.240;2022-11-20T04:45:30;10.23;;;3.00;;
22837;SDS011;11585;51.450;-0.240;2022-11-20T04:47:56;11.73;;;3.65;;
22837;SDS011;11585;51.450;-0.240;2022-11-20T04:50:22;8.02;;;3.28;;
22837;SDS011;11585;51.450;-0.240;2022-11-20T04:55:58;9.30;;;3.72;;
22837;SDS011;11585;51.450;-0.240;2022-11-20T04:58:28;10.18;;;3.47;;
22837;SDS011;11585;51.450;-0.240;2022-11-20T05:01:00;6.18;;;3.20;;
22837;SDS011;11585;51.450;-0.240;2022-11-20T05:06:34;9.27;;;3.38;;
22837;SDS011;11585;51.450;-0.240;2022-11-20T05:08:59;6.30;;;3.20;;
22837;SDS011;11585;51.450;-0.240;2022-11-20T05:11:26;9.45;;;3.72;;
22837;SDS011;11585;51.450;-0.240;2022-11-20T05:13:54;9.85;;;3.22;;
22837;SDS011;11585;51.450;-0.240;2022-11-20T05:16:23;11.93;;;2.88;;
22837;SDS011;11585;51.450;-0.240;2022-11-20T05:18:53;10.63;;;3.40;;
22837;SDS011;11585;51.450;-0.240;2022-11-20T05:21:19;7.78;;;3.00;;
22837;SDS011;11585;51.450;-0.240;2022-11-20T05:26:30;5.20;;;3.30;;
22837;SDS011;11585;51.450;-0.240;2022-11-20T05:28:56;11.10;;;3.33;;
22837;SDS011;11585;51.450;-0.240;2022-11-20T05:31:23;9.48;;;3.17;;
22837;SDS011;11585;51.450;-0.240;2022-11-20T05:36:38;5.25;;;2.85;;
22837;SDS011;11585;51.450;-0.240;2022-11-20T05:39:04;8.23;;;2.53;;
22837;SDS011;11585;51.450;-0.240;2022-11-20T05:41:30;9.60;;;3.60;;
22837;SDS011;11585;51.450;-0.240;2022-11-20T05:47:17;7.28;;;3.08;;
22837;SDS011;11585;51.450;-0.240;2022-11-20T05:49:43;5.13;;;2.80;;
22837;SDS011;11585;51.450;-0.240;2022-11-20T05:52:09;5.45;;;3.03;;
22837;SDS011;11585;51.450;-0.240;2022-11-20T05:57:05;11.68;;;3.22;;
22837;SDS011;11585;51.450;-0.240;2022-11-20T05:59:31;9.20;;;3.33;;
22837;SDS011;11585;51.450;-0.240;2022-11-20T06:01:56;13.75;;;3.63;;
22837;SDS011;11585;51.450;-0.240;2022-11-20T06:13:01;11.18;;;3.05;;
22837;SDS011;11585;51.450;-0.240;2022-11-20T06:15:27;7.93;;;2.95;;
22837;SDS011;11585;51.450;-0.240;2022-11-20T06:17:53;11.20;;;3.53;;
22837;SDS011;11585;51.450;-0.240;2022-11-20T06:20:19;10.15;;;3.45;;
22837;SDS011;11585;51.450;-0.240;2022-11-20T06:25:49;10.45;;;3.35;;
22837;SDS011;11585;51.450;-0.240;2022-11-20T06:28:14;6.07;;;2.97;;
22837;SDS011;11585;51.450;-0.240;2022-11-20T06:30:44;9.38;;;3.70;;
22837;SDS011;11585;51.450;-0.240;2022-11-20T06:33:11;13.57;;;3.38;;
22837;SDS011;11585;51.450;-0.240;2022-11-20T06:35:36;8.73;;;3.00;;
22837;SDS011;11585;51.450;-0.240;2022-11-20T06:38:02;7.97;;;2.70;;
22837;SDS011;11585;51.450;-0.240;2022-11-20T06:40:27;11.70;;;3.90;;
22837;SDS011;11585;51.450;-0.240;2022-11-20T06:42:53;14.02;;;3.95;;
22837;SDS011;11585;51.450;-0.240;2022-11-20T06:45:19;11.25;;;3.22;;
22837;SDS011;11585;51.450;-0.240;2022-11-20T06:47:45;6.75;;;3.10;;
22837;SDS011;11585;51.450;-0.240;2022-11-20T06:50:11;12.50;;;3.53;;
22837;SDS011;11585;51.450;-0.240;2022-11-20T06:52:37;11.02;;;3.00;;
22837;SDS011;11585;51.450;-0.240;2022-11-20T06:55:04;14.20;;;3.60;;
22837;SDS011;11585;51.450;-0.240;2022-11-20T06:57:30;11.95;;;3.00;;
22837;SDS011;11585;51.450;-0.240;2022-11-20T06:59:55;11.77;;;3.50;;
22837;SDS011;11585;51.450;-0.240;2022-11-20T07:02:21;11.18;;;3.22;;
22837;SDS011;11585;51.450;-0.240;2022-11-20T07:08:08;8.40;;;3.47;;
22837;SDS011;11585;51.450;-0.240;2022-11-20T07:10:34;9.68;;;3.67;;
22837;SDS011;11585;51.450;-0.240;2022-11-20T07:13:00;8.15;;;2.70;;
22837;SDS011;11585;51.450;-0.240;2022-11-20T07:15:26;9.73;;;2.45;;
22837;SDS011;11585;51.450;-0.240;2022-11-20T07:17:52;7.35;;;2.75;;
22837;SDS011;11585;51.450;-0.240;2022-11-20T07:20:17;5.97;;;2.17;;
22837;SDS011;11585;51.450;-0.240;2022-11-20T07:22:43;4.20;;;2.10;;
22837;SDS011;11585;51.450;-0.240;2022-11-20T07:25:09;13.10;;;2.15;;
22837;SDS011;11585;51.450;-0.240;2022-11-20T07:27:35;7.13;;;2.22;;
22837;SDS011;11585;51.450;-0.240;2022-11-20T07:30:01;5.22;;;2.33;;
22837;SDS011;11585;51.450;-0.240;2022-11-20T07:32:28;10.82;;;2.22;;
22837;SDS011;11585;51.450;-0.240;2022-11-20T07:34:54;4.03;;;1.30;;
22837;SDS011;11585;51.450;-0.240;2022-11-20T07:37:20;4.05;;;1.52;;
22837;SDS011;11585;51.450;-0.240;2022-11-20T07:39:45;6.28;;;2.80;;
22837;SDS011;11585;51.450;-0.240;2022-11-20T07:42:11;6.90;;;3.00;;
22837;SDS011;11585;51.450;-0.240;2022-11-20T07:47:41;12.45;;;3.42;;
22837;SDS011;11585;51.450;-0.240;2022-11-20T07:50:07;5.95;;;3.08;;
22837;SDS011;11585;51.450;-0.240;2022-11-20T07:52:33;10.95;;;3.78;;
22837;SDS011;11585;51.450;-0.240;2022-11-20T07:58:03;10.45;;;3.38;;
22837;SDS011;11585;51.450;-0.240;2022-11-20T08:00:29;9.93;;;4.05;;
22837;SDS011;11585;51.450;-0.240;2022-11-20T08:09:05;11.05;;;4.88;;
22837;SDS011;11585;51.450;-0.240;2022-11-20T08:11:30;11.55;;;3.80;;
22837;SDS011;11585;51.450;-0.240;2022-11-20T08:17:00;11.90;;;4.10;;
22837;SDS011;11585;51.450;-0.240;2022-11-20T08:19:25;12.82;;;4.63;;
22837;SDS011;11585;51.450;-0.240;2022-11-20T08:21:51;11.18;;;4.32;;
22837;SDS011;11585;51.450;-0.240;2022-11-20T08:24:19;9.38;;;4.68;;
22837;SDS011;11585;51.450;-0.240;2022-11-20T08:26:44;8.27;;;4.88;;
22837;SDS011;11585;51.450;-0.240;2022-11-20T08:29:10;11.55;;;4.63;;
22837;SDS011;11585;51.450;-0.240;2022-11-20T08:31:36;12.15;;;4.65;;
22837;SDS011;11585;51.450;-0.240;2022-11-20T08:37:07;11.57;;;5.38;;
22837;SDS011;11585;51.450;-0.240;2022-11-20T08:39:32;14.40;;;5.50;;
22837;SDS011;11585;51.450;-0.240;2022-11-20T08:41:58;8.40;;;4.18;;
22837;SDS011;11585;51.450;-0.240;2022-11-20T08:47:10;11.00;;;4.03;;
22837;SDS011;11585;51.450;-0.240;2022-11-20T08:49:36;12.63;;;4.38;;
22837;SDS011;11585;51.450;-0.240;2022-11-20T08:52:01;12.10;;;4.47;;
22837;SDS011;11585;51.450;-0.240;2022-11-20T08:57:49;9.23;;;4.47;;
22837;SDS011;11585;51.450;-0.240;2022-11-20T09:00:14;14.70;;;4.75;;
22837;SDS011;11585;51.450;-0.240;2022-11-20T09:02:41;7.10;;;4.32;;
22837;SDS011;11585;51.450;-0.240;2022-11-20T09:05:06;7.00;;;4.10;;
22837;SDS011;11585;51.450;-0.240;2022-11-20T09:07:32;14.60;;;5.05;;
22837;SDS011;11585;51.450;-0.240;2022-11-20T09:09:58;12.75;;;5.30;;
22837;SDS011;11585;51.450;-0.240;2022-11-20T09:12:23;12.00;;;5.05;;
22837;SDS011;11585;51.450;-0.240;2022-11-20T09:17:54;12.48;;;5.60;;
22837;SDS011;11585;51.450;-0.240;2022-11-20T09:20:21;12.85;;;4.93;;
22837;SDS011;11585;51.450;-0.240;2022-11-20T09:22:47;13.30;;;5.93;;
22837;SDS011;11585;51.450;-0.240;2022-11-20T09:25:21;11.30;;;5.30;;
22837;SDS011;11585;51.450;-0.240;2022-11-20T09:27:54;15.80;;;5.53;;
22837;SDS011;11585;51.450;-0.240;2022-11-20T09:30:21;12.55;;;5.38;;
22837;SDS011;11585;51.450;-0.240;2022-11-20T09:36:08;12.90;;;4.97;;
22837;SDS011;11585;51.450;-0.240;2022-11-20T09:38:34;10.95;;;4.68;;
22837;SDS011;11585;51.450;-0.240;2022-11-20T09:41:04;15.95;;;4.95;;
22837;SDS011;11585;51.450;-0.240;2022-11-20T09:46:54;11.63;;;5.20;;
22837;SDS011;11585;51.450;-0.240;2022-11-20T09:49:51;8.90;;;4.32;;
22837;SDS011;11585;51.450;-0.240;2022-11-20T09:52:22;19.45;;;4.75;;
22837;SDS011;11585;51.450;-0.240;2022-11-20T09:54:54;13.15;;;4.68;;
22837;SDS011;11585;51.450;-0.240;2022-11-20T09:57:21;20.85;;;5.13;;
22837;SDS011;11585;51.450;-0.240;2022-11-20T09:59:59;18.70;;;5.80;;
22837;SDS011;11585;51.450;-0.240;2022-11-20T10:02:28;16.67;;;5.35;;
22837;SDS011;11585;51.450;-0.240;2022-11-20T10:31:36;16.83;;;4.53;;
22837;SDS011;11585;51.450;-0.240;2022-11-20T10:36:55;18.08;;;3.58;;
22837;SDS011;11585;51.450;-0.240;2022-11-20T10:39:39;24.02;;;4.38;;
22837;SDS011;11585;51.450;-0.240;2022-11-20T10:48:07;26.35;;;3.55;;
22837;SDS011;11585;51.450;-0.240;2022-11-20T10:50:40;26.83;;;3.80;;
22837;SDS011;11585;51.450;-0.240;2022-11-20T10:56:47;33.35;;;3.80;;
22837;SDS011;11585;51.450;-0.240;2022-11-20T11:01:50;21.10;;;2.95;;
22837;SDS011;11585;51.450;-0.240;2022-11-20T11:07:16;24.13;;;3.55;;
22837;SDS011;11585;51.450;-0.240;2022-11-20T11:09:55;27.23;;;3.13;;
22837;SDS011;11585;51.450;-0.240;2022-11-20T11:12:32;30.95;;;3.80;;
22837;SDS011;11585;51.450;-0.240;2022-11-20T11:14:58;22.20;;;3.15;;
22837;SDS011;11585;51.450;-0.240;2022-11-20T11:17:28;29.50;;;3.30;;
22837;SDS011;11585;51.450;-0.240;2022-11-20T11:20:11;20.67;;;2.92;;
22837;SDS011;11585;51.450;-0.240;2022-11-20T11:22:44;27.35;;;3.70;;
22837;SDS011;11585;51.450;-0.240;2022-11-20T11:30:43;24.63;;;3.05;;
22837;SDS011;11585;51.450;-0.240;2022-11-20T11:33:11;37.28;;;3.65;;
22837;SDS011;11585;51.450;-0.240;2022-11-20T11:35:45;27.30;;;3.95;;
22837;SDS011;11585;51.450;-0.240;2022-11-20T11:38:14;42.37;;;4.33;;
22837;SDS011;11585;51.450;-0.240;2022-11-20T11:40:44;30.10;;;3.45;;
22837;SDS011;11585;51.450;-0.240;2022-11-20T11:46:34;37.85;;;3.92;;
22837;SDS011;11585;51.450;-0.240;2022-11-20T11:49:08;34.47;;;3.35;;
22837;SDS011;11585;51.450;-0.240;2022-11-20T11:57:17;22.98;;;3.70;;
22837;SDS011;11585;51.450;-0.240;2022-11-20T11:59:59;32.65;;;3.75;;
22837;SDS011;11585;51.450;-0.240;2022-11-20T12:07:48;21.98;;;2.90;;
22837;SDS011;11585;51.450;-0.240;2022-11-20T12:19:39;25.05;;;3.80;;
22837;SDS011;11585;51.450;-0.240;2022-11-20T12:30:20;25.40;;;3.38;;
22837;SDS011;11585;51.450;-0.240;2022-11-20T12:53:30;21.20;;;3.13;;
22837;SDS011;11585;51.450;-0.240;2022-11-20T13:08:20;20.73;;;2.97;;
22837;SDS011;11585;51.450;-0.240;2022-11-20T13:11:03;23.45;;;3.47;;
22837;SDS011;11585;51.450;-0.240;2022-11-20T13:19:09;26.25;;;2.70;;
22837;SDS011;11585;51.450;-0.240;2022-11-20T13:21:48;18.88;;;3.10;;
22837;SDS011;11585;51.450;-0.240;2022-11-20T13:27:17;19.65;;;2.42;;
22837;SDS011;11585;51.450;-0.240;2022-11-20T13:29:46;21.67;;;3.28;;
22837;SDS011;11585;51.450;-0.240;2022-11-20T13:32:24;27.60;;;3.25;;
22837;SDS011;11585;51.450;-0.240;2022-11-20T13:38:03;25.40;;;3.00;;
22837;SDS011;11585;51.450;-0.240;2022-11-20T13:40:33;23.33;;;2.92;;
22837;SDS011;11585;51.450;-0.240;2022-11-20T13:45:30;13.88;;;2.53;;
22837;SDS011;11585;51.450;-0.240;2022-11-20T13:47:57;20.08;;;2.58;;
22837;SDS011;11585;51.450;-0.240;2022-11-20T13:50:40;17.98;;;2.63;;
22837;SDS011;11585;51.450;-0.240;2022-11-20T13:56:36;27.35;;;3.15;;
22837;SDS011;11585;51.450;-0.240;2022-11-20T14:02:09;28.52;;;2.97;;
22837;SDS011;11585;51.450;-0.240;2022-11-20T14:11:15;19.63;;;2.88;;
22837;SDS011;11585;51.450;-0.240;2022-11-20T14:14:00;11.25;;;2.55;;
22837;SDS011;11585;51.450;-0.240;2022-11-20T14:16:28;18.50;;;2.67;;
22837;SDS011;11585;51.450;-0.240;2022-11-20T14:19:17;16.58;;;3.10;;
22837;SDS011;11585;51.450;-0.240;2022-11-20T14:21:44;28.33;;;2.80;;
22837;SDS011;11585;51.450;-0.240;2022-11-20T14:26:56;25.30;;;2.92;;
22837;SDS011;11585;51.450;-0.240;2022-11-20T14:29:23;16.50;;;2.63;;
22837;SDS011;11585;51.450;-0.240;2022-11-20T14:31:54;18.55;;;2.70;;
22837;SDS011;11585;51.450;-0.240;2022-11-20T14:37:43;24.23;;;7.30;;
22837;SDS011;11585;51.450;-0.240;2022-11-20T14:46:21;23.75;;;3.10;;
22837;SDS011;11585;51.450;-0.240;2022-11-20T14:48:57;17.55;;;3.67;;
22837;SDS011;11585;51.450;-0.240;2022-11-20T14:51:41;14.55;;;3.00;;
22837;SDS011;11585;51.450;-0.240;2022-11-20T14:57:02;15.48;;;2.63;;
22837;SDS011;11585;51.450;-0.240;2022-11-20T14:59:30;21.00;;;3.42;;
22837;SDS011;11585;51.450;-0.240;2022-11-20T15:02:08;21.10;;;3.13;;
22837;SDS011;11585;51.450;-0.240;2022-11-20T15:08:07;22.58;;;2.67;;
22837;SDS011;11585;51.450;-0.240;2022-11-20T15:10:36;17.77;;;2.67;;
22837;SDS011;11585;51.450;-0.240;2022-11-20T15:15:59;25.83;;;3.55;;
22837;SDS011;11585;51.450;-0.240;2022-11-20T15:20:57;28.80;;;3.78;;
22837;SDS011;11585;51.450;-0.240;2022-11-20T15:26:36;24.30;;;5.68;;
22837;SDS011;11585;51.450;-0.240;2022-11-20T15:29:10;20.73;;;3.88;;
22837;SDS011;11585;51.450;-0.240;2022-11-20T15:31:38;29.52;;;4.43;;
22837;SDS011;11585;51.450;-0.240;2022-11-20T15:34:18;33.08;;;4.38;;
22837;SDS011;11585;51.450;-0.240;2022-11-20T15:36:44;18.98;;;3.65;;
22837;SDS011;11585;51.450;-0.240;2022-11-20T15:39:10;21.80;;;3.25;;
22837;SDS011;11585;51.450;-0.240;2022-11-20T15:41:36;17.70;;;2.92;;
22837;SDS011;11585;51.450;-0.240;2022-11-20T15:46:49;12.68;;;2.80;;
22837;SDS011;11585;51.450;-0.240;2022-11-20T15:49:16;16.73;;;3.17;;
22837;SDS011;11585;51.450;-0.240;2022-11-20T15:51:44;24.88;;;5.80;;
22837;SDS011;11585;51.450;-0.240;2022-11-20T15:54:16;26.13;;;5.18;;
22837;SDS011;11585;51.450;-0.240;2022-11-20T15:56:45;13.68;;;3.03;;
22837;SDS011;11585;51.450;-0.240;2022-11-20T15:59:11;12.48;;;3.35;;
22837;SDS011;11585;51.450;-0.240;2022-11-20T16:01:40;19.38;;;3.63;;
22837;SDS011;11585;51.450;-0.240;2022-11-20T16:07:15;11.85;;;2.63;;
22837;SDS011;11585;51.450;-0.240;2022-11-20T16:09:41;20.73;;;2.60;;
22837;SDS011;11585;51.450;-0.240;2022-11-20T16:12:09;13.45;;;2.78;;
22837;SDS011;11585;51.450;-0.240;2022-11-20T16:18:18;21.70;;;3.15;;
22837;SDS011;11585;51.450;-0.240;2022-11-20T16:20:45;15.25;;;2.88;;
22837;SDS011;11585;51.450;-0.240;2022-11-20T16:29:25;17.75;;;2.47;;
22837;SDS011;11585;51.450;-0.240;2022-11-20T16:31:53;13.77;;;3.20;;
22837;SDS011;11585;51.450;-0.240;2022-11-20T16:37:07;20.70;;;3.05;;
22837;SDS011;11585;51.450;-0.240;2022-11-20T16:39:33;13.32;;;2.90;;
22837;SDS011;11585;51.450;-0.240;2022-11-20T16:42:00;9.57;;;2.47;;
22837;SDS011;11585;51.450;-0.240;2022-11-20T16:47:50;18.10;;;2.80;;
22837;SDS011;11585;51.450;-0.240;2022-11-20T16:50:16;20.23;;;2.65;;
22837;SDS011;11585;51.450;-0.240;2022-11-20T16:52:41;12.20;;;2.45;;
22837;SDS011;11585;51.450;-0.240;2022-11-20T16:55:07;9.00;;;2.35;;
22837;SDS011;11585;51.450;-0.240;2022-11-20T16:57:33;12.27;;;2.13;;
22837;SDS011;11585;51.450;-0.240;2022-11-20T17:00:02;10.95;;;3.00;;
22837;SDS011;11585;51.450;-0.240;2022-11-20T17:02:28;12.05;;;3.10;;
22837;SDS011;11585;51.450;-0.240;2022-11-20T17:04:54;15.50;;;3.03;;
22837;SDS011;11585;51.450;-0.240;2022-11-20T17:07:19;11.60;;;2.85;;
22837;SDS011;11585;51.450;-0.240;2022-11-20T17:09:45;11.68;;;2.35;;
22837;SDS011;11585;51.450;-0.240;2022-11-20T17:12:11;11.57;;;2.60;;
22837;SDS011;11585;51.450;-0.240;2022-11-20T17:17:58;14.73;;;2.60;;
22837;SDS011;11585;51.450;-0.240;2022-11-20T17:20:27;23.00;;;7.22;;
22837;SDS011;11585;51.450;-0.240;2022-11-20T17:22:58;22.42;;;6.15;;
22837;SDS011;11585;51.450;-0.240;2022-11-20T17:25:24;8.32;;;2.30;;
22837;SDS011;11585;51.450;-0.240;2022-11-20T17:27:49;9.68;;;2.38;;
22837;SDS011;11585;51.450;-0.240;2022-11-20T17:30:18;12.32;;;2.30;;
22837;SDS011;11585;51.450;-0.240;2022-11-20T17:32:43;13.65;;;3.00;;
22837;SDS011;11585;51.450;-0.240;2022-11-20T17:35:11;7.85;;;2.40;;
22837;SDS011;11585;51.450;-0.240;2022-11-20T17:37:36;9.50;;;2.40;;
22837;SDS011;11585;51.450;-0.240;2022-11-20T17:40:02;10.63;;;2.75;;
22837;SDS011;11585;51.450;-0.240;2022-11-20T17:42:28;11.73;;;2.45;;
22837;SDS011;11585;51.450;-0.240;2022-11-20T17:48:15;13.52;;;2.53;;
22837;SDS011;11585;51.450;-0.240;2022-11-20T17:50:44;14.95;;;4.35;;
22837;SDS011;11585;51.450;-0.240;2022-11-20T17:59:40;6.85;;;2.15;;
22837;SDS011;11585;51.450;-0.240;2022-11-20T18:02:08;13.13;;;2.53;;
22837;SDS011;11585;51.450;-0.240;2022-11-20T18:07:59;8.88;;;2.35;;
22837;SDS011;11585;51.450;-0.240;2022-11-20T18:10:27;16.13;;;2.53;;
22837;SDS011;11585;51.450;-0.240;2022-11-20T18:16:20;8.05;;;2.20;;
22837;SDS011;11585;51.450;-0.240;2022-11-20T18:18:46;13.63;;;2.60;;
22837;SDS011;11585;51.450;-0.240;2022-11-20T18:21:11;11.65;;;2.50;;
22837;SDS011;11585;51.450;-0.240;2022-11-20T18:23:37;15.02;;;2.72;;
22837;SDS011;11585;51.450;-0.240;2022-11-20T18:26:05;8.50;;;2.47;;
22837;SDS011;11585;51.450;-0.240;2022-11-20T18:28:32;6.97;;;2.70;;
22837;SDS011;11585;51.450;-0.240;2022-11-20T18:31:05;8.40;;;2.30;;
22837;SDS011;11585;51.450;-0.240;2022-11-20T18:36:26;9.00;;;2.03;;
22837;SDS011;11585;51.450;-0.240;2022-11-20T18:38:54;7.60;;;2.38;;
22837;SDS011;11585;51.450;-0.240;2022-11-20T18:41:22;8.00;;;2.50;;
22837;SDS011;11585;51.450;-0.240;2022-11-20T18:47:23;12.32;;;2.45;;
22837;SDS011;11585;51.450;-0.240;2022-11-20T19:02:51;5.35;;;1.77;;
22837;SDS011;11585;51.450;-0.240;2022-11-20T19:05:18;4.95;;;2.13;;
22837;SDS011;11585;51.450;-0.240;2022-11-20T19:07:43;6.25;;;1.80;;
22837;SDS011;11585;51.450;-0.240;2022-11-20T19:10:17;4.35;;;2.17;;
22837;SDS011;11585;51.450;-0.240;2022-11-20T19:12:44;5.22;;;1.85;;
22837;SDS011;11585;51.450;-0.240;2022-11-20T19:15:09;10.07;;;2.30;;
22837;SDS011;11585;51.450;-0.240;2022-11-20T19:17:35;14.00;;;2.15;;
22837;SDS011;11585;51.450;-0.240;2022-11-20T19:20:07;5.35;;;1.95;;
22837;SDS011;11585;51.450;-0.240;2022-11-20T19:22:54;4.82;;;2.00;;
22837;SDS011;11585;51.450;-0.240;2022-11-20T19:25:22;10.60;;;2.05;;
22837;SDS011;11585;51.450;-0.240;2022-11-20T19:27:48;8.90;;;2.15;;
22837;SDS011;11585;51.450;-0.240;2022-11-20T19:30:17;6.93;;;2.13;;
22837;SDS011;11585;51.450;-0.240;2022-11-20T19:32:42;7.65;;;2.22;;
22837;SDS011;11585;51.450;-0.240;2022-11-20T19:35:08;6.80;;;2.15;;
22837;SDS011;11585;51.450;-0.240;2022-11-20T19:37:34;6.00;;;1.75;;
22837;SDS011;11585;51.450;-0.240;2022-11-20T19:40:00;8.48;;;2.17;;
22837;SDS011;11585;51.450;-0.240;2022-11-20T19:42:28;8.07;;;1.85;;
22837;SDS011;11585;51.450;-0.240;2022-11-20T19:48:02;8.02;;;1.63;;
22837;SDS011;11585;51.450;-0.240;2022-11-20T19:50:28;4.68;;;2.08;;
22837;SDS011;11585;51.450;-0.240;2022-11-20T19:59:40;9.98;;;2.20;;
22837;SDS011;11585;51.450;-0.240;2022-11-20T20:02:07;4.15;;;1.70;;
22837;SDS011;11585;51.450;-0.240;2022-11-20T20:07:57;6.07;;;2.15;;
22837;SDS011;11585;51.450;-0.240;2022-11-20T20:10:25;4.57;;;2.40;;
22837;SDS011;11585;51.450;-0.240;2022-11-20T20:12:52;6.97;;;2.47;;
22837;SDS011;11585;51.450;-0.240;2022-11-20T20:15:18;8.93;;;2.40;;
22837;SDS011;11585;51.450;-0.240;2022-11-20T20:17:44;4.90;;;2.40;;
22837;SDS011;11585;51.450;-0.240;2022-11-20T20:20:09;11.93;;;2.75;;
22837;SDS011;11585;51.450;-0.240;2022-11-20T20:22:38;4.97;;;2.55;;
22837;SDS011;11585;51.450;-0.240;2022-11-20T20:25:05;9.52;;;2.60;;
22837;SDS011;11585;51.450;-0.240;2022-11-20T20:27:34;4.15;;;2.30;;
22837;SDS011;11585;51.450;-0.240;2022-11-20T20:30:01;9.57;;;2.97;;
22837;SDS011;11585;51.450;-0.240;2022-11-20T20:32:31;9.98;;;2.72;;
22837;SDS011;11585;51.450;-0.240;2022-11-20T20:34:59;10.98;;;2.85;;
22837;SDS011;11585;51.450;-0.240;2022-11-20T20:37:25;7.55;;;3.03;;
22837;SDS011;11585;51.450;-0.240;2022-11-20T20:39:50;7.63;;;2.70;;
22837;SDS011;11585;51.450;-0.240;2022-11-20T20:42:19;10.23;;;3.10;;
22837;SDS011;11585;51.450;-0.240;2022-11-20T20:47:51;9.30;;;3.00;;
22837;SDS011;11585;51.450;-0.240;2022-11-20T20:53:32;7.20;;;2.85;;
22837;SDS011;11585;51.450;-0.240;2022-11-20T20:56:01;9.45;;;2.92;;
22837;SDS011;11585;51.450;-0.240;2022-11-20T20:58:30;13.50;;;3.70;;
22837;SDS011;11585;51.450;-0.240;2022-11-20T21:01:02;7.35;;;3.10;;
22837;SDS011;11585;51.450;-0.240;2022-11-20T21:16:33;7.93;;;3.33;;
22837;SDS011;11585;51.450;-0.240;2022-11-20T21:19:10;10.27;;;3.63;;
22837;SDS011;11585;51.450;-0.240;2022-11-20T21:21:36;11.25;;;3.33;;
22837;SDS011;11585;51.450;-0.240;2022-11-20T21:27:25;11.20;;;3.05;;
22837;SDS011;11585;51.450;-0.240;2022-11-20T21:29:53;8.82;;;3.83;;
22837;SDS011;11585;51.450;-0.240;2022-11-20T21:32:18;7.22;;;3.38;;
22837;SDS011;11585;51.450;-0.240;2022-11-20T21:37:43;12.13;;;3.10;;
22837;SDS011;11585;51.450;-0.240;2022-11-20T21:40:14;7.22;;;3.30;;
22837;SDS011;11585;51.450;-0.240;2022-11-20T21:42:42;13.75;;;3.47;;
22837;SDS011;11585;51.450;-0.240;2022-11-20T21:45:15;14.55;;;3.78;;
22837;SDS011;11585;51.450;-0.240;2022-11-20T21:47:41;13.95;;;3.78;;
22837;SDS011;11585;51.450;-0.240;2022-11-20T21:50:07;6.20;;;3.58;;
22837;SDS011;11585;51.450;-0.240;2022-11-20T21:52:38;16.77;;;3.72;;
22837;SDS011;11585;51.450;-0.240;2022-11-20T21:55:22;11.52;;;3.70;;
22837;SDS011;11585;51.450;-0.240;2022-11-20T21:57:54;9.20;;;3.40;;
22837;SDS011;11585;51.450;-0.240;2022-11-20T22:00:25;11.60;;;3.17;;
22837;SDS011;11585;51.450;-0.240;2022-11-20T22:06:14;18.40;;;4.30;;
22837;SDS011;11585;51.450;-0.240;2022-11-20T22:08:43;15.45;;;3.50;;
22837;SDS011;11585;51.450;-0.240;2022-11-20T22:11:16;11.63;;;3.60;;
22837;SDS011;11585;51.450;-0.240;2022-11-20T22:13:51;9.23;;;3.17;;
22837;SDS011;11585;51.450;-0.240;2022-11-20T22:16:42;12.70;;;3.40;;
22837;SDS011;11585;51.450;-0.240;2022-11-20T22:19:08;13.15;;;3.80;;
22837;SDS011;11585;51.450;-0.240;2022-11-20T22:21:41;10.18;;;3.28;;
22837;SDS011;11585;51.450;-0.240;2022-11-20T22:26:37;11.60;;;3.40;;
22837;SDS011;11585;51.450;-0.240;2022-11-20T22:29:02;17.52;;;4.13;;
22837;SDS011;11585;51.450;-0.240;2022-11-20T22:31:28;12.68;;;4.30;;
22837;SDS011;11585;51.450;-0.240;2022-11-20T22:33:55;15.05;;;4.38;;
22837;SDS011;11585;51.450;-0.240;2022-11-20T22:36:23;12.90;;;4.40;;
22837;SDS011;11585;51.450;-0.240;2022-11-20T22:38:52;10.23;;;4.57;;
22837;SDS011;11585;51.450;-0.240;2022-11-20T22:41:22;9.05;;;3.90;;
22837;SDS011;11585;51.450;-0.240;2022-11-20T22:46:40;10.52;;;4.07;;
22837;SDS011;11585;51.450;-0.240;2022-11-20T22:49:06;11.02;;;3.90;;
22837;SDS011;11585;51.450;-0.240;2022-11-20T22:51:36;14.38;;;4.13;;
22837;SDS011;11585;51.450;-0.240;2022-11-20T22:57:26;18.17;;;4.35;;
22837;SDS011;11585;51.450;-0.240;2022-11-20T22:59:51;15.88;;;4.60;;
22837;SDS011;11585;51.450;-0.240;2022-11-20T23:02:17;10.82;;;3.60;;
22837;SDS011;11585;51.450;-0.240;2022-11-20T23:07:47;15.43;;;4.78;;
22837;SDS011;11585;51.450;-0.240;2022-11-20T23:16:30;15.90;;;3.22;;
22837;SDS011;11585;51.450;-0.240;2022-11-20T23:18:59;11.95;;;3.42;;
22837;SDS011;11585;51.450;-0.240;2022-11-20T23:21:27;10.43;;;2.90;;
22837;SDS011;11585;51.450;-0.240;2022-11-20T23:23:54;19.73;;;3.50;;
22837;SDS011;11585;51.450;-0.240;2022-11-20T23:26:22;11.07;;;3.13;;
22837;SDS011;11585;51.450;-0.240;2022-11-20T23:28:49;15.00;;;3.28;;
22837;SDS011;11585;51.450;-0.240;2022-11-20T23:31:16;10.25;;;2.92;;
22837;SDS011;11585;51.450;-0.240;2022-11-20T23:40:10;17.73;;;3.40;;
22837;SDS011;11585;51.450;-0.240;2022-11-20T23:42:36;11.30;;;3.20;;
22837;SDS011;11585;51.450;-0.240;2022-11-20T23:45:21;11.77;;;3.03;;
22837;SDS011;11585;51.450;-0.240;2022-11-20T23:47:47;13.80;;;3.53;;
22837;SDS011;11585;51.450;-0.240;2022-11-20T23:50:13;15.40;;;3.47;;
22837;SDS011;11585;51.450;-0.240;2022-11-20T23:52:38;15.52;;;3.00;;
22837;SDS011;11585;51.450;-0.240;2022-11-20T23:58:30;12.43;;;2.70;;
